Terminal Aerodrome Forecast
Issued by NWS

Home | Current Version | Previous Version | Text Only | Print | Product List | Glossary On
Versions: 1 2 3 4 5 6 7 8 9 10 11 12 13 14 15 16 17 18 19
000
FTUS41 KPBZ 300537
TAFBVI
TAF
KBVI 300537Z 3006/0106 14004KT P6SM VCSH BKN040
     FM300900 18004KT P6SM BKN008
     FM301500 22010KT P6SM BKN015
     FM302000 22010G18KT P6SM VCTS BKN035CB
     FM010100 21005KT P6SM VCSH BKN100
      AMD NOT SKED=

USA.gov is the U.S. government's official web portal to all federal, state and local government web resources and services.